Time;durP1;ratioP1;P1;durP2;ratioP2;P2;SDS_P1;SDS_P2;PMS_P1;PMS_P2;Temp;Humidity;BMP_temperature;BMP_pressure;BME280_temperature;BME280_humidity;BME280_pressure;Samples;Min_cycle;Max_cycle;Signal;HPM_P1;HPM_P2
2021/08/09 00:00:33;;;;;;;3.00;1.40;;;19.20;40.10;;;;;;10360854;28;20245;-74
2021/08/09 00:05:37;;;;;;;1.30;1.20;;;19.10;40.20;;;;;;10357040;28;20230;-74
2021/08/09 00:10:40;;;;;;;1.53;1.43;;;19.00;39.90;;;;;;10354025;28;20242;-74
2021/08/09 00:15:44;;;;;;;1.27;1.17;;;18.90;40.00;;;;;;10363829;28;20226;-74
2021/08/09 00:20:48;;;;;;;1.30;1.20;;;18.90;40.30;;;;;;10366473;28;20658;-74
2021/08/09 00:25:51;;;;;;;1.30;1.20;;;18.80;40.30;;;;;;10358778;28;20233;-74
2021/08/09 00:30:56;;;;;;;1.90;1.50;;;18.80;40.20;;;;;;10365634;28;20238;-74
2021/08/09 00:35:59;;;;;;;3.07;1.50;;;18.70;40.50;;;;;;10353990;28;20322;-73
2021/08/09 00:41:02;;;;;;;1.40;1.30;;;18.60;40.10;;;;;;10358620;28;20238;-74
2021/08/09 00:46:07;;;;;;;1.40;1.30;;;18.60;40.30;;;;;;10360025;28;20241;-74
2021/08/09 00:51:11;;;;;;;1.40;1.30;;;18.50;40.50;;;;;;10362211;28;20277;-74
2021/08/09 00:56:14;;;;;;;2.63;1.30;;;18.50;40.50;;;;;;10372025;28;20722;-74
2021/08/09 01:01:19;;;;;;;1.50;1.20;;;18.40;40.40;;;;;;10371368;28;20249;-74
2021/08/09 01:06:22;;;;;;;1.63;1.40;;;18.40;40.60;;;;;;10359591;28;20286;-74
2021/08/09 01:11:30;;;;;;;1.17;1.10;;;18.40;40.50;;;;;;10372120;28;20232;-74
2021/08/09 01:16:38;;;;;;;1.50;1.10;;;18.40;40.80;;;;;;10380610;28;20703;-74
2021/08/09 01:21:41;;;;;;;2.03;1.30;;;18.30;40.80;;;;;;10367653;28;20622;-74
2021/08/09 01:26:52;;;;;;;1.70;1.40;;;18.30;40.50;;;;;;10367966;28;20257;-74
2021/08/09 01:31:58;;;;;;;1.07;1.07;;;18.30;40.60;;;;;;10367667;28;20234;-74
2021/08/09 01:37:02;;;;;;;1.53;1.20;;;18.20;40.40;;;;;;10366224;28;20234;-74
2021/08/09 01:42:06;;;;;;;1.10;1.10;;;18.10;40.40;;;;;;10370943;28;20237;-74
2021/08/09 01:47:11;;;;;;;1.20;1.10;;;18.10;40.30;;;;;;10371963;28;20234;-74
2021/08/09 01:52:15;;;;;;;4.17;1.30;;;18.00;40.70;;;;;;10371499;28;20237;-74
2021/08/09 01:57:18;;;;;;;1.30;1.20;;;18.00;40.50;;;;;;10374055;28;20235;-74
2021/08/09 02:02:27;;;;;;;1.80;1.20;;;17.90;40.30;;;;;;10364529;28;20389;-74
2021/08/09 02:07:30;;;;;;;1.50;1.10;;;17.90;40.90;;;;;;10369861;28;20238;-74
2021/08/09 02:12:38;;;;;;;2.40;1.23;;;17.80;40.60;;;;;;10372131;28;20233;-74
2021/08/09 02:17:48;;;;;;;1.43;0.97;;;17.70;40.70;;;;;;10365625;28;20242;-74
2021/08/09 02:22:54;;;;;;;1.27;1.20;;;17.70;40.90;;;;;;10371428;28;20241;-74
2021/08/09 02:28:06;;;;;;;1.30;1.13;;;17.70;40.80;;;;;;10358135;28;20230;-74
2021/08/09 02:33:11;;;;;;;1.50;1.40;;;17.70;41.20;;;;;;10368041;28;20235;-74
2021/08/09 02:38:15;;;;;;;1.80;1.20;;;17.60;40.80;;;;;;10371776;28;20227;-74
2021/08/09 02:43:19;;;;;;;1.73;1.30;;;17.70;40.80;;;;;;10365079;28;20249;-73
2021/08/09 02:48:25;;;;;;;1.30;1.17;;;17.60;40.60;;;;;;10361317;28;20230;-74
2021/08/09 02:53:29;;;;;;;1.43;1.33;;;17.60;41.10;;;;;;10372933;28;20236;-74
2021/08/09 02:58:32;;;;;;;2.20;1.00;;;17.60;40.90;;;;;;10367920;28;20233;-74
2021/08/09 03:03:39;;;;;;;1.27;1.17;;;17.50;40.80;;;;;;10374135;28;20717;-74
2021/08/09 03:08:43;;;;;;;1.30;1.20;;;17.50;41.00;;;;;;10360104;28;20226;-74
2021/08/09 03:13:47;;;;;;;2.57;1.20;;;17.50;40.70;;;;;;10374754;28;20300;-74
2021/08/09 03:18:51;;;;;;;1.93;1.20;;;17.40;40.80;;;;;;10372010;28;20694;-74
2021/08/09 03:23:54;;;;;;;2.30;1.20;;;17.40;41.00;;;;;;10359731;28;20249;-74
2021/08/09 03:28:57;;;;;;;1.83;1.17;;;17.30;40.80;;;;;;10362670;28;20736;-74
2021/08/09 03:34:02;;;;;;;2.63;1.17;;;17.30;41.00;;;;;;10364397;28;20234;-73
2021/08/09 03:39:05;;;;;;;1.83;1.27;;;17.30;41.20;;;;;;10367022;28;20230;-74
2021/08/09 03:44:08;;;;;;;1.63;1.33;;;17.20;41.10;;;;;;10360030;28;20248;-74
2021/08/09 03:49:13;;;;;;;2.73;1.17;;;17.20;41.20;;;;;;10364287;28;20277;-74
2021/08/09 03:54:16;;;;;;;3.53;1.30;;;17.10;41.70;;;;;;10376355;28;20256;-74
2021/08/09 03:59:19;;;;;;;1.50;1.27;;;17.10;41.40;;;;;;10360134;28;20726;-74
2021/08/09 04:04:24;;;;;;;2.80;1.47;;;17.00;41.40;;;;;;10369245;28;20600;-73
2021/08/09 04:09:27;;;;;;;4.40;1.67;;;17.00;42.00;;;;;;10361068;28;20244;-74
2021/08/09 04:14:30;;;;;;;3.70;1.50;;;16.90;42.00;;;;;;10373904;28;20329;-73
2021/08/09 04:19:35;;;;;;;1.30;1.20;;;16.90;42.30;;;;;;10356698;28;20321;-73
2021/08/09 04:24:38;;;;;;;2.07;1.30;;;16.90;42.80;;;;;;10361595;28;20234;-74
2021/08/09 04:29:41;;;;;;;1.73;1.40;;;16.90;42.40;;;;;;10360655;28;20245;-74
2021/08/09 04:34:46;;;;;;;2.50;1.37;;;17.00;42.60;;;;;;10360942;28;20234;-74
2021/08/09 04:39:49;;;;;;;2.83;1.40;;;17.00;42.90;;;;;;10355932;28;20231;-74
2021/08/09 04:44:52;;;;;;;2.17;1.30;;;17.10;42.70;;;;;;10365924;28;20265;-74
2021/08/09 04:49:57;;;;;;;2.10;1.20;;;17.10;42.60;;;;;;10356672;28;20320;-73
2021/08/09 04:55:00;;;;;;;2.20;1.23;;;17.20;43.00;;;;;;10353842;28;20231;-74
2021/08/09 05:00:05;;;;;;;3.03;1.60;;;17.20;42.70;;;;;;10355204;28;20325;-74
2021/08/09 05:05:10;;;;;;;1.40;1.30;;;17.20;43.10;;;;;;10362111;28;20230;-73
2021/08/09 05:10:13;;;;;;;1.57;1.40;;;17.20;43.30;;;;;;10357869;28;20262;-74
2021/08/09 05:15:17;;;;;;;2.53;1.40;;;17.30;43.20;;;;;;10364955;28;20238;-74
2021/08/09 05:20:22;;;;;;;1.60;1.50;;;17.30;43.20;;;;;;10360050;28;20320;-74
2021/08/09 05:25:25;;;;;;;2.17;1.40;;;17.30;43.80;;;;;;10361760;28;20242;-74
2021/08/09 05:30:29;;;;;;;1.97;1.30;;;17.30;43.60;;;;;;10367984;28;20244;-74
2021/08/09 05:35:33;;;;;;;3.00;1.40;;;17.40;43.90;;;;;;10357805;28;20230;-73
2021/08/09 05:40:37;;;;;;;2.50;1.70;;;17.50;44.40;;;;;;10369808;28;20237;-74
2021/08/09 05:45:40;;;;;;;3.40;1.83;;;17.50;44.20;;;;;;10363970;28;20250;-74
2021/08/09 05:50:45;;;;;;;1.40;1.40;;;17.60;44.40;;;;;;10370436;28;20226;-74
2021/08/09 05:55:48;;;;;;;3.13;1.70;;;17.70;45.10;;;;;;10373229;28;20226;-73
2021/08/09 06:00:52;;;;;;;1.80;1.70;;;17.80;44.80;;;;;;10384706;28;20611;-75
2021/08/09 06:05:56;;;;;;;2.00;1.90;;;17.90;44.90;;;;;;10373349;28;20785;-75
2021/08/09 06:11:00;;;;;;;2.00;1.90;;;17.90;45.60;;;;;;10372389;28;20238;-75
2021/08/09 06:16:03;;;;;;;2.93;1.80;;;18.00;45.20;;;;;;10368856;28;20238;-74
2021/08/09 06:21:07;;;;;;;1.73;1.63;;;18.10;45.30;;;;;;10361399;28;20624;-75
2021/08/09 06:26:11;;;;;;;2.77;2.07;;;18.20;46.10;;;;;;10363814;28;20277;-74
2021/08/09 06:31:14;;;;;;;2.30;1.70;;;18.30;45.80;;;;;;10365942;28;20249;-75
2021/08/09 06:36:18;;;;;;;2.17;1.80;;;18.50;46.00;;;;;;10360303;28;20237;-75
2021/08/09 06:41:24;;;;;;;4.00;1.80;;;18.60;46.30;;;;;;10364036;28;20257;-74
2021/08/09 06:46:27;;;;;;;1.93;1.77;;;18.70;45.70;;;;;;10369116;28;20289;-73
2021/08/09 06:51:32;;;;;;;1.70;1.47;;;18.80;45.80;;;;;;10378542;28;20229;-73
2021/08/09 06:56:35;;;;;;;5.10;1.53;;;19.00;45.90;;;;;;10384781;28;20236;-73
2021/08/09 07:01:38;;;;;;;2.40;1.70;;;19.10;45.60;;;;;;10368374;28;20281;-72
2021/08/09 07:06:44;;;;;;;1.40;1.30;;;19.20;46.10;;;;;;10369462;28;20256;-72
2021/08/09 07:11:47;;;;;;;2.87;1.60;;;19.40;45.60;;;;;;10368689;28;20238;-73
2021/08/09 07:16:51;;;;;;;2.43;1.60;;;19.50;44.90;;;;;;10386889;28;20736;-73
2021/08/09 07:21:55;;;;;;;1.60;1.50;;;19.70;45.00;;;;;;10389168;28;20710;-73
2021/08/09 07:26:59;;;;;;;1.70;1.60;;;19.80;44.80;;;;;;10370812;28;20642;-73
2021/08/09 07:32:02;;;;;;;3.73;1.63;;;20.00;44.70;;;;;;10382317;28;20234;-73
2021/08/09 07:37:08;;;;;;;1.57;1.47;;;20.20;44.60;;;;;;10373058;28;20230;-73
2021/08/09 07:42:11;;;;;;;1.43;1.33;;;20.40;44.30;;;;;;10374742;28;20604;-72
2021/08/09 07:47:27;;;;;;;1.47;1.37;;;20.60;44.20;;;;;;10382578;28;20241;-74
2021/08/09 07:52:32;;;;;;;2.27;1.40;;;20.80;44.20;;;;;;10379342;28;20253;-73
2021/08/09 07:57:35;;;;;;;1.40;1.30;;;21.00;43.80;;;;;;10369516;28;20232;-73
2021/08/09 08:02:38;;;;;;;3.97;1.67;;;21.20;43.70;;;;;;10372682;28;20240;-73
2021/08/09 08:07:43;;;;;;;1.53;1.27;;;21.40;43.60;;;;;;10372413;28;20230;-73
2021/08/09 08:12:46;;;;;;;2.47;1.37;;;21.60;42.90;;;;;;10371322;28;20317;-73
2021/08/09 08:17:50;;;;;;;1.60;1.50;;;21.90;43.10;;;;;;10369703;28;20309;-73
2021/08/09 08:22:57;;;;;;;1.43;1.20;;;22.10;42.50;;;;;;10375886;28;20234;-74
2021/08/09 08:28:00;;;;;;;1.87;1.27;;;22.40;41.30;;;;;;10364679;28;20230;-72
2021/08/09 08:33:03;;;;;;;1.97;1.40;;;22.60;41.60;;;;;;10370480;28;20324;-72
2021/08/09 08:38:08;;;;;;;1.23;1.23;;;22.80;41.20;;;;;;10381584;28;20238;-73
2021/08/09 08:43:19;;;;;;;3.80;1.40;;;23.00;40.10;;;;;;10359888;28;20225;-73
2021/08/09 08:48:24;;;;;;;1.30;1.20;;;23.30;39.40;;;;;;10376832;28;20236;-73
2021/08/09 08:53:49;;;;;;;6.47;1.70;;;23.50;39.90;;;;;;10368613;28;20237;-73
2021/08/09 08:58:52;;;;;;;2.13;1.40;;;23.70;39.80;;;;;;10371499;28;20234;-73
2021/08/09 09:03:56;;;;;;;1.87;1.30;;;23.80;39.60;;;;;;10365314;28;20237;-74
2021/08/09 09:09:00;;;;;;;1.20;1.20;;;24.00;39.30;;;;;;10364841;28;20306;-73
2021/08/09 09:14:05;;;;;;;1.40;1.27;;;24.10;38.10;;;;;;10369399;28;20285;-74
2021/08/09 09:19:09;;;;;;;1.50;1.40;;;24.30;37.90;;;;;;10362673;28;20897;-74
2021/08/09 09:24:15;;;;;;;1.30;1.20;;;24.50;38.60;;;;;;10384546;28;20248;-72
2021/08/09 09:29:19;;;;;;;1.53;1.17;;;24.70;35.60;;;;;;10402007;28;20242;-73
2021/08/09 09:34:23;;;;;;;1.30;1.20;;;24.80;36.90;;;;;;10376441;28;20229;-73
2021/08/09 09:39:30;;;;;;;1.30;1.20;;;25.10;36.90;;;;;;10414166;28;20233;-73
2021/08/09 09:44:35;;;;;;;2.63;1.30;;;25.20;34.90;;;;;;10381897;28;20251;-74
2021/08/09 09:49:38;;;;;;;1.73;1.30;;;25.40;35.60;;;;;;10371756;28;21247;-75
2021/08/09 09:54:43;;;;;;;1.40;1.30;;;25.60;35.60;;;;;;10365801;28;20226;-74
2021/08/09 09:59:47;;;;;;;2.77;1.20;;;25.70;34.10;;;;;;10376712;28;20719;-74
2021/08/09 10:04:51;;;;;;;1.50;1.30;;;25.70;34.60;;;;;;10377928;28;20248;-73
2021/08/09 10:09:56;;;;;;;1.50;1.10;;;25.80;34.10;;;;;;10379919;28;20244;-73
2021/08/09 10:15:00;;;;;;;1.00;1.00;;;26.00;32.80;;;;;;10352171;28;20242;-73
2021/08/09 10:20:06;;;;;;;1.67;1.20;;;26.10;33.40;;;;;;10367198;28;20233;-72
2021/08/09 10:25:13;;;;;;;2.50;1.40;;;26.30;32.90;;;;;;10373746;28;20858;-73
2021/08/09 10:30:17;;;;;;;1.20;1.10;;;26.40;31.80;;;;;;10364950;28;20595;-73
2021/08/09 10:36:02;;;;;;;1.07;1.07;;;26.50;33.40;;;;;;10360192;28;20713;-73
2021/08/09 10:41:38;;;;;;;1.57;1.20;;;26.60;31.80;;;;;;10365662;28;20234;-73
2021/08/09 10:46:42;;;;;;;1.77;1.10;;;26.80;33.00;;;;;;10290062;28;20261;-74
2021/08/09 10:52:04;;;;;;;2.53;1.27;;;26.80;32.00;;;;;;10362914;28;20257;-73
2021/08/09 10:57:09;;;;;;;1.17;1.10;;;26.90;30.60;;;;;;10373643;28;20236;-73
2021/08/09 11:02:18;;;;;;;1.40;1.20;;;26.90;30.60;;;;;;10370592;28;20227;-74
2021/08/09 11:07:21;;;;;;;1.20;1.10;;;27.00;30.30;;;;;;10368505;28;20246;-73
2021/08/09 11:12:28;;;;;;;1.30;1.20;;;27.00;31.00;;;;;;10363843;28;20242;-74
2021/08/09 11:17:33;;;;;;;1.10;1.00;;;27.00;29.70;;;;;;10372406;28;20230;-75
2021/08/09 11:22:36;;;;;;;1.30;1.10;;;27.10;29.80;;;;;;10364475;28;20238;-74
2021/08/09 11:28:03;;;;;;;1.27;1.17;;;27.20;30.00;;;;;;10364778;28;20239;-74
2021/08/09 11:33:08;;;;;;;3.33;1.30;;;27.30;29.90;;;;;;10362043;28;20234;-74
2021/08/09 11:38:11;;;;;;;1.30;1.20;;;27.40;29.90;;;;;;10371088;28;20725;-73
2021/08/09 11:43:22;;;;;;;1.20;1.10;;;27.50;30.00;;;;;;10372898;28;20714;-74
2021/08/09 11:48:27;;;;;;;2.37;1.20;;;27.60;28.00;;;;;;10370996;28;20778;-74
2021/08/09 11:53:30;;;;;;;1.30;1.20;;;27.60;28.50;;;;;;10370239;28;20238;-74
2021/08/09 11:58:37;;;;;;;1.30;1.20;;;27.60;28.60;;;;;;10359922;28;20285;-73
2021/08/09 12:04:00;;;;;;;1.77;1.30;;;27.60;27.80;;;;;;10358341;28;20249;-74
2021/08/09 12:09:03;;;;;;;1.20;1.10;;;27.70;28.60;;;;;;10353428;28;20237;-73
2021/08/09 12:14:14;;;;;;;1.20;1.10;;;27.80;28.50;;;;;;10357169;28;20718;-74
2021/08/09 12:19:19;;;;;;;1.40;1.30;;;27.80;27.00;;;;;;10366740;28;20234;-75
2021/08/09 12:24:23;;;;;;;1.63;1.07;;;27.80;28.30;;;;;;10365208;28;20246;-73
2021/08/09 12:29:28;;;;;;;1.60;1.20;;;27.80;28.00;;;;;;10349763;28;20260;-73
2021/08/09 12:34:31;;;;;;;1.30;1.20;;;27.80;28.00;;;;;;10344805;28;20309;-73
2021/08/09 12:39:36;;;;;;;1.20;1.10;;;27.90;28.10;;;;;;10356078;28;20234;-74
2021/08/09 12:44:40;;;;;;;2.07;1.23;;;27.90;27.50;;;;;;10362042;28;20569;-75
2021/08/09 12:49:44;;;;;;;1.40;1.30;;;28.10;27.00;;;;;;10371089;28;20237;-76
2021/08/09 12:54:47;;;;;;;1.40;1.30;;;28.10;27.00;;;;;;10396821;28;20238;-73
2021/08/09 12:59:52;;;;;;;1.77;1.30;;;28.10;27.30;;;;;;10378792;28;20233;-74
2021/08/09 13:04:55;;;;;;;1.53;1.30;;;28.10;26.50;;;;;;10377767;28;20245;-74
2021/08/09 13:10:00;;;;;;;1.30;1.20;;;28.10;26.90;;;;;;10374591;28;20231;-74
2021/08/09 13:15:05;;;;;;;1.27;1.17;;;28.10;26.40;;;;;;10368795;28;20238;-72
2021/08/09 13:20:10;;;;;;;1.50;1.30;;;28.10;26.60;;;;;;10389137;28;20234;-73
2021/08/09 13:25:13;;;;;;;1.33;1.23;;;28.20;26.20;;;;;;10395359;28;20794;-73
2021/08/09 13:30:18;;;;;;;1.57;1.13;;;28.20;26.80;;;;;;10385608;28;20267;-75
2021/08/09 13:35:21;;;;;;;1.10;1.10;;;28.20;25.90;;;;;;10373900;28;21230;-74
2021/08/09 13:40:25;;;;;;;2.03;1.20;;;28.10;26.30;;;;;;10370527;28;20239;-73
2021/08/09 13:45:41;;;;;;;1.40;1.30;;;28.10;26.40;;;;;;10378231;28;20234;-74
2021/08/09 13:50:44;;;;;;;1.47;1.37;;;28.10;25.60;;;;;;10389037;28;20244;-74
2021/08/09 13:55:47;;;;;;;1.83;1.47;;;28.10;26.10;;;;;;10383623;28;20226;-74
2021/08/09 14:00:52;;;;;;;1.20;1.20;;;28.10;26.20;;;;;;10355752;28;20230;-74
2021/08/09 14:05:55;;;;;;;1.20;1.10;;;28.10;25.70;;;;;;10360921;28;20234;-74
2021/08/09 14:10:58;;;;;;;1.63;1.30;;;28.10;26.20;;;;;;10374559;28;20682;-73
2021/08/09 14:16:05;;;;;;;1.43;1.20;;;28.10;25.80;;;;;;10376562;28;20230;-72
2021/08/09 14:21:25;;;;;;;1.60;1.43;;;28.00;25.30;;;;;;10379774;28;20231;-74
2021/08/09 14:26:30;;;;;;;1.57;1.47;;;28.10;26.10;;;;;;10372330;28;20238;-74
2021/08/09 14:31:34;;;;;;;1.53;1.37;;;28.10;25.40;;;;;;10365339;28;20736;-74
2021/08/09 14:36:38;;;;;;;2.30;2.10;;;28.10;25.20;;;;;;10363716;28;20265;-74
2021/08/09 14:41:41;;;;;;;3.53;3.10;;;28.00;25.50;;;;;;10372568;28;20949;-73
2021/08/09 14:46:45;;;;;;;1.77;1.67;;;28.00;25.80;;;;;;10382518;28;20698;-73
2021/08/09 14:51:49;;;;;;;1.67;1.57;;;28.00;25.40;;;;;;10384459;28;20768;-73
2021/08/09 14:56:52;;;;;;;1.60;1.33;;;28.00;25.60;;;;;;10378970;28;20230;-74
2021/08/09 15:01:57;;;;;;;1.50;1.40;;;28.00;25.60;;;;;;10374537;28;20237;-73
2021/08/09 15:07:00;;;;;;;1.60;1.20;;;28.00;24.70;;;;;;10372624;28;20282;-73
2021/08/09 15:12:04;;;;;;;1.57;1.40;;;27.90;25.10;;;;;;10367884;28;20322;-74
2021/08/09 15:17:10;;;;;;;1.30;1.20;;;27.80;25.30;;;;;;10362522;28;20238;-75
2021/08/09 15:22:13;;;;;;;1.23;1.13;;;27.90;25.20;;;;;;10380671;28;20247;-73
2021/08/09 15:27:17;;;;;;;1.40;1.30;;;27.90;25.40;;;;;;10362204;28;20777;-73
2021/08/09 15:32:21;;;;;;;1.60;1.50;;;27.90;25.90;;;;;;10370033;28;20238;-73
2021/08/09 15:37:25;;;;;;;1.40;1.30;;;27.90;25.30;;;;;;10376038;28;20261;-72
2021/08/09 15:42:28;;;;;;;1.63;1.50;;;27.90;25.60;;;;;;10381484;28;20241;-74
2021/08/09 15:47:33;;;;;;;1.10;1.10;;;27.90;25.90;;;;;;10366968;28;20234;-76
2021/08/09 15:52:36;;;;;;;1.30;1.30;;;27.90;25.00;;;;;;10368815;28;20259;-75
2021/08/09 15:57:39;;;;;;;1.73;1.20;;;27.90;25.60;;;;;;10350243;28;20234;-75
2021/08/09 16:02:44;;;;;;;1.80;1.70;;;27.90;25.50;;;;;;10363568;28;20234;-74
2021/08/09 16:07:47;;;;;;;1.50;1.40;;;27.90;25.50;;;;;;10360062;28;20324;-74
2021/08/09 16:12:51;;;;;;;1.80;1.60;;;27.90;25.90;;;;;;10351088;28;20242;-76
2021/08/09 16:17:57;;;;;;;1.30;1.30;;;27.90;25.90;;;;;;10363411;28;20229;-75
2021/08/09 16:23:05;;;;;;;1.40;1.30;;;27.80;26.00;;;;;;10357249;28;20241;-76
2021/08/09 16:28:09;;;;;;;2.03;1.10;;;27.80;26.60;;;;;;10357500;28;20720;-75
2021/08/09 16:33:13;;;;;;;1.50;1.40;;;27.90;27.20;;;;;;10352000;28;20322;-75
2021/08/09 16:38:17;;;;;;;1.53;1.43;;;27.80;26.60;;;;;;10348785;28;20230;-76
2021/08/09 16:43:20;;;;;;;1.23;1.13;;;27.80;26.80;;;;;;10363558;28;20253;-77
2021/08/09 16:48:25;;;;;;;1.57;1.47;;;27.80;27.00;;;;;;10357850;28;20237;-75
2021/08/09 16:53:29;;;;;;;1.60;1.47;;;27.80;27.60;;;;;;10350191;28;20240;-76
2021/08/09 16:58:33;;;;;;;1.40;1.30;;;27.70;27.40;;;;;;10353250;28;20257;-76
2021/08/09 17:03:38;;;;;;;1.40;1.30;;;27.70;27.70;;;;;;10350835;28;20230;-77
2021/08/09 17:08:41;;;;;;;1.50;1.40;;;27.60;27.50;;;;;;10358869;28;20234;-76
2021/08/09 17:13:44;;;;;;;1.60;1.50;;;27.60;27.40;;;;;;10360335;28;20246;-77
2021/08/09 17:18:49;;;;;;;1.70;1.60;;;27.50;27.60;;;;;;10360910;28;20219;-75
2021/08/09 17:23:52;;;;;;;1.80;1.60;;;27.50;28.00;;;;;;10357220;28;20234;-76
2021/08/09 17:28:56;;;;;;;2.23;1.30;;;27.50;28.30;;;;;;10346012;28;20234;-77
2021/08/09 17:34:00;;;;;;;4.03;1.50;;;27.60;28.40;;;;;;10354108;28;20234;-75
2021/08/09 17:39:03;;;;;;;1.60;1.50;;;27.50;28.40;;;;;;10359190;28;20234;-77
2021/08/09 17:44:07;;;;;;;1.70;1.60;;;27.60;28.40;;;;;;10359354;28;20239;-77
2021/08/09 17:49:12;;;;;;;1.63;1.53;;;27.60;28.80;;;;;;10358812;28;21061;-76
2021/08/09 17:54:15;;;;;;;1.70;1.60;;;27.60;29.00;;;;;;10357424;28;20246;-77
2021/08/09 17:59:18;;;;;;;1.50;1.40;;;27.50;28.70;;;;;;10361779;28;20248;-76
2021/08/09 18:04:23;;;;;;;1.67;1.57;;;27.40;28.70;;;;;;10356847;28;20330;-76
2021/08/09 18:09:26;;;;;;;2.53;1.67;;;27.30;29.00;;;;;;10358488;28;20237;-76
2021/08/09 18:14:29;;;;;;;3.40;1.53;;;27.20;29.00;;;;;;10364318;28;20230;-76
2021/08/09 18:19:34;;;;;;;2.43;1.50;;;27.10;29.80;;;;;;10363119;28;20238;-77
2021/08/09 18:24:37;;;;;;;3.47;1.60;;;27.00;29.70;;;;;;10358690;28;20262;-76
2021/08/09 18:29:41;;;;;;;1.83;1.60;;;26.90;29.70;;;;;;10357593;28;20248;-76
2021/08/09 18:34:46;;;;;;;2.47;1.50;;;26.90;29.70;;;;;;10351992;28;20653;-76
2021/08/09 18:39:49;;;;;;;2.63;1.43;;;26.80;29.60;;;;;;10362899;28;20240;-75
2021/08/09 18:44:52;;;;;;;1.97;1.73;;;26.70;29.60;;;;;;10355751;28;20230;-76
2021/08/09 18:49:58;;;;;;;2.53;1.60;;;26.60;29.80;;;;;;10352216;28;20230;-75
2021/08/09 18:55:01;;;;;;;1.90;1.60;;;26.40;30.60;;;;;;10357108;28;20242;-76
2021/08/09 19:00:06;;;;;;;2.37;1.60;;;26.30;30.20;;;;;;10360877;28;20609;-77
2021/08/09 19:05:11;;;;;;;1.97;1.57;;;26.20;30.30;;;;;;10367819;28;20543;-76
2021/08/09 19:10:14;;;;;;;4.00;2.20;;;26.10;30.70;;;;;;10345920;28;20238;-76
2021/08/09 19:15:17;;;;;;;2.23;1.60;;;26.00;30.40;;;;;;10348222;28;20289;-74
2021/08/09 19:20:22;;;;;;;1.60;1.50;;;25.90;30.50;;;;;;10346654;28;20318;-74
2021/08/09 19:25:25;;;;;;;1.60;1.50;;;25.80;30.90;;;;;;10346874;28;20239;-76
2021/08/09 19:30:29;;;;;;;1.40;1.30;;;25.70;30.60;;;;;;10341521;28;20253;-76
2021/08/09 19:35:33;;;;;;;2.40;2.20;;;25.60;30.90;;;;;;10350490;28;20241;-76
2021/08/09 19:40:37;;;;;;;4.93;4.23;;;25.40;31.10;;;;;;10342045;28;20602;-75
2021/08/09 19:45:40;;;;;;;4.20;3.90;;;25.30;30.80;;;;;;10341160;28;20226;-76
2021/08/09 19:50:45;;;;;;;3.27;2.97;;;25.20;31.00;;;;;;10341342;28;20253;-76
2021/08/09 19:55:48;;;;;;;2.50;2.30;;;24.90;31.30;;;;;;10330959;28;20226;-75
2021/08/09 20:00:51;;;;;;;2.67;2.30;;;24.70;31.20;;;;;;10341298;28;20226;-76
2021/08/09 20:05:56;;;;;;;2.13;2.00;;;24.70;31.70;;;;;;10343491;28;20286;-76
2021/08/09 20:10:59;;;;;;;1.90;1.80;;;24.60;32.00;;;;;;10343357;28;20242;-76
2021/08/09 20:16:02;;;;;;;2.37;1.97;;;24.50;31.60;;;;;;10343686;28;20302;-75
2021/08/09 20:21:07;;;;;;;1.90;1.70;;;24.40;31.70;;;;;;10339190;28;20414;-76
2021/08/09 20:26:10;;;;;;;2.27;2.10;;;24.20;32.30;;;;;;10339268;28;20238;-75
2021/08/09 20:31:14;;;;;;;2.83;1.93;;;24.00;32.20;;;;;;10342082;28;20254;-76
2021/08/09 20:36:18;;;;;;;3.30;2.20;;;23.80;32.20;;;;;;10354810;28;20230;-77
2021/08/09 20:41:21;;;;;;;2.53;1.80;;;23.60;32.90;;;;;;10352596;28;20237;-77
2021/08/09 20:46:25;;;;;;;3.80;1.97;;;23.50;32.80;;;;;;10348145;28;20485;-78
2021/08/09 20:51:29;;;;;;;1.70;1.60;;;23.30;33.10;;;;;;10345811;28;20262;-77
2021/08/09 20:56:32;;;;;;;1.70;1.60;;;23.20;33.40;;;;;;10352416;28;20980;-78
2021/08/09 21:01:36;;;;;;;1.87;1.77;;;23.20;33.40;;;;;;10350776;28;20232;-77
2021/08/09 21:06:41;;;;;;;3.27;2.20;;;23.10;33.60;;;;;;10359206;28;20245;-77
2021/08/09 21:11:44;;;;;;;2.40;2.20;;;22.90;34.10;;;;;;10358043;28;20236;-77
2021/08/09 21:16:47;;;;;;;2.70;2.50;;;22.80;33.70;;;;;;10363829;28;20234;-77
2021/08/09 21:21:51;;;;;;;2.53;2.33;;;22.70;33.90;;;;;;10364913;28;20263;-77
2021/08/09 21:26:55;;;;;;;3.00;2.53;;;22.50;34.60;;;;;;10357972;28;20695;-77
2021/08/09 21:32:01;;;;;;;3.53;2.20;;;22.40;34.30;;;;;;10361961;28;20262;-77
2021/08/09 21:37:06;;;;;;;2.53;2.30;;;22.30;34.50;;;;;;10352695;28;20235;-77
2021/08/09 21:42:09;;;;;;;3.30;2.07;;;22.20;35.10;;;;;;10366953;28;20253;-78
2021/08/09 21:47:13;;;;;;;2.80;2.30;;;22.10;34.60;;;;;;10361005;28;20733;-75
2021/08/09 21:52:17;;;;;;;2.30;2.10;;;22.00;34.70;;;;;;10354917;28;20231;-77
2021/08/09 21:57:20;;;;;;;1.70;1.60;;;21.90;35.30;;;;;;10353287;28;20242;-77
2021/08/09 22:02:24;;;;;;;2.47;2.27;;;21.80;35.00;;;;;;10350433;28;20258;-74
2021/08/09 22:07:28;;;;;;;2.23;2.03;;;21.80;35.20;;;;;;10346820;28;20230;-77
2021/08/09 22:12:32;;;;;;;2.40;2.20;;;21.70;35.40;;;;;;10351798;28;20268;-77
2021/08/09 22:17:35;;;;;;;2.07;1.87;;;21.70;35.00;;;;;;10360195;28;20675;-76
2021/08/09 22:22:40;;;;;;;3.43;2.03;;;21.60;34.90;;;;;;10359626;28;20248;-77
2021/08/09 22:27:43;;;;;;;2.80;2.60;;;21.60;35.50;;;;;;10362395;28;20605;-77
2021/08/09 22:32:46;;;;;;;1.90;1.77;;;21.60;35.00;;;;;;10356787;28;20238;-77
2021/08/09 22:37:51;;;;;;;1.93;1.83;;;21.60;34.80;;;;;;10358608;28;20226;-75
2021/08/09 22:42:54;;;;;;;2.30;2.10;;;21.50;35.00;;;;;;10359091;28;20240;-75
2021/08/09 22:47:58;;;;;;;2.10;1.90;;;21.50;34.90;;;;;;10359924;28;20234;-77
2021/08/09 22:53:03;;;;;;;1.97;1.87;;;21.50;35.10;;;;;;10352411;28;20238;-76
2021/08/09 22:58:07;;;;;;;2.23;2.13;;;21.50;35.30;;;;;;10360702;28;20235;-76
2021/08/09 23:03:10;;;;;;;2.20;1.90;;;21.40;35.10;;;;;;10357195;28;20676;-75
2021/08/09 23:08:14;;;;;;;2.53;2.30;;;21.40;35.20;;;;;;10361406;28;20933;-76
2021/08/09 23:13:17;;;;;;;2.43;2.10;;;21.40;35.50;;;;;;10353633;28;20239;-76
2021/08/09 23:18:21;;;;;;;2.10;1.90;;;21.40;35.20;;;;;;10359107;28;20257;-76
2021/08/09 23:23:26;;;;;;;2.37;2.07;;;21.30;35.30;;;;;;10361271;28;20234;-76
2021/08/09 23:28:29;;;;;;;3.13;2.00;;;21.30;35.60;;;;;;10355269;28;20765;-76
2021/08/09 23:33:32;;;;;;;1.77;1.67;;;21.30;35.30;;;;;;10357946;28;20237;-76
2021/08/09 23:38:36;;;;;;;2.30;2.10;;;21.30;35.30;;;;;;10355925;28;20586;-76
2021/08/09 23:43:40;;;;;;;2.10;2.00;;;21.20;35.50;;;;;;10353960;28;20553;-76
2021/08/09 23:48:43;;;;;;;3.37;2.07;;;21.20;35.50;;;;;;10358987;28;20235;-77
2021/08/09 23:53:47;;;;;;;2.20;2.10;;;21.10;35.50;;;;;;10358066;28;20234;-76
2021/08/09 23:58:51;;;;;;;2.30;2.10;;;21.00;35.90;;;;;;10352692;28;20730;-76
